Login to view Products
 
Friday, December 02, 2022 (13:27 UTC)
Dubai International Airport
Last Updated: 02-Dec-2022 (13:26Z)
Wind Dir/Speed: NW at 06 kt
Temperature: 27.7°C
Rel. Humidity: 64 %
Pressure: 1012.7 hPa
Visibility: 9476 m
  • METAR OMDB 021300Z 33009KT 300V020 CAVOK 28/20 Q1012 NOSIG
  • TAF OMDB 021100Z 0212/0318 32010KT 9999 FEW040 BECMG 0216/0218 14005KT PROB30 0300/0305 4000 HZ BKN014 BECMG 0308/0310 30010KT BECMG 0316/0318 VRB02KT=
13-- D:\Input Parser\Destinations\Final\11\OMDB_TAF.txt 02/12/2022-- 02/12/2022-- 3